sensor_id;sensor_type;location;lat;lon;timestamp;temperature;humidity
20487;DHT22;10402;49.012;8.370;2023-07-31T00:00:33;19.70;68.80
20487;DHT22;10402;49.012;8.370;2023-07-31T00:02:59;19.70;68.80
20487;DHT22;10402;49.012;8.370;2023-07-31T00:05:24;19.70;69.00
20487;DHT22;10402;49.012;8.370;2023-07-31T00:07:50;19.70;69.30
20487;DHT22;10402;49.012;8.370;2023-07-31T00:10:15;19.60;69.30
20487;DHT22;10402;49.012;8.370;2023-07-31T00:12:43;19.60;69.50
20487;DHT22;10402;49.012;8.370;2023-07-31T00:15:09;19.60;69.60
20487;DHT22;10402;49.012;8.370;2023-07-31T00:17:35;19.60;69.60
20487;DHT22;10402;49.012;8.370;2023-07-31T00:20:01;19.60;69.60
20487;DHT22;10402;49.012;8.370;2023-07-31T00:22:27;19.60;69.70
20487;DHT22;10402;49.012;8.370;2023-07-31T00:24:53;19.60;69.70
20487;DHT22;10402;49.012;8.370;2023-07-31T00:27:18;19.60;69.60
20487;DHT22;10402;49.012;8.370;2023-07-31T00:29:44;19.60;69.60
20487;DHT22;10402;49.012;8.370;2023-07-31T00:32:09;19.60;69.70
20487;DHT22;10402;49.012;8.370;2023-07-31T00:34:35;19.50;69.70
20487;DHT22;10402;49.012;8.370;2023-07-31T00:37:00;19.60;69.90
20487;DHT22;10402;49.012;8.370;2023-07-31T00:39:26;19.60;70.20
20487;DHT22;10402;49.012;8.370;2023-07-31T00:41:51;19.60;70.20
20487;DHT22;10402;49.012;8.370;2023-07-31T00:44:17;19.60;70.10
20487;DHT22;10402;49.012;8.370;2023-07-31T00:46:43;19.60;70.20
20487;DHT22;10402;49.012;8.370;2023-07-31T00:49:10;19.50;70.20
20487;DHT22;10402;49.012;8.370;2023-07-31T00:51:36;19.50;70.30
20487;DHT22;10402;49.012;8.370;2023-07-31T00:54:02;19.40;70.30
20487;DHT22;10402;49.012;8.370;2023-07-31T00:56:29;19.40;70.40
20487;DHT22;10402;49.012;8.370;2023-07-31T00:58:55;19.40;70.50
20487;DHT22;10402;49.012;8.370;2023-07-31T01:01:21;19.40;70.40
20487;DHT22;10402;49.012;8.370;2023-07-31T01:03:47;19.40;70.50
20487;DHT22;10402;49.012;8.370;2023-07-31T01:06:52;19.40;70.50
20487;DHT22;10402;49.012;8.370;2023-07-31T01:09:37;19.40;70.60
20487;DHT22;10402;49.012;8.370;2023-07-31T01:12:07;19.30;70.70
20487;DHT22;10402;49.012;8.370;2023-07-31T01:14:32;19.30;70.90
20487;DHT22;10402;49.012;8.370;2023-07-31T01:16:58;19.20;70.80
20487;DHT22;10402;49.012;8.370;2023-07-31T01:19:25;19.20;71.00
20487;DHT22;10402;49.012;8.370;2023-07-31T01:28:00;19.10;71.50
20487;DHT22;10402;49.012;8.370;2023-07-31T01:30:31;19.10;71.50
20487;DHT22;10402;49.012;8.370;2023-07-31T01:32:59;19.10;71.60
20487;DHT22;10402;49.012;8.370;2023-07-31T01:35:27;19.10;71.50
20487;DHT22;10402;49.012;8.370;2023-07-31T01:37:53;19.10;71.50
20487;DHT22;10402;49.012;8.370;2023-07-31T01:40:19;19.00;71.50
20487;DHT22;10402;49.012;8.370;2023-07-31T01:42:45;19.00;71.50
20487;DHT22;10402;49.012;8.370;2023-07-31T01:45:11;19.00;71.60
20487;DHT22;10402;49.012;8.370;2023-07-31T01:47:37;18.90;71.40
20487;DHT22;10402;49.012;8.370;2023-07-31T01:50:02;18.90;71.40
20487;DHT22;10402;49.012;8.370;2023-07-31T01:52:28;18.90;72.30
20487;DHT22;10402;49.012;8.370;2023-07-31T01:54:54;18.90;71.50
20487;DHT22;10402;49.012;8.370;2023-07-31T01:57:19;18.90;71.40
20487;DHT22;10402;49.012;8.370;2023-07-31T01:59:45;18.90;71.40
20487;DHT22;10402;49.012;8.370;2023-07-31T02:02:10;18.80;71.40
20487;DHT22;10402;49.012;8.370;2023-07-31T02:04:36;18.80;71.50
20487;DHT22;10402;49.012;8.370;2023-07-31T02:07:01;18.80;71.40
20487;DHT22;10402;49.012;8.370;2023-07-31T02:09:27;18.90;71.40
20487;DHT22;10402;49.012;8.370;2023-07-31T02:11:52;18.80;71.30
20487;DHT22;10402;49.012;8.370;2023-07-31T02:14:18;18.90;71.50
20487;DHT22;10402;49.012;8.370;2023-07-31T02:16:43;18.90;71.40
20487;DHT22;10402;49.012;8.370;2023-07-31T02:19:09;18.80;71.50
20487;DHT22;10402;49.012;8.370;2023-07-31T02:21:34;18.80;71.50
20487;DHT22;10402;49.012;8.370;2023-07-31T02:24:00;18.80;71.40
20487;DHT22;10402;49.012;8.370;2023-07-31T02:26:25;18.80;71.60
20487;DHT22;10402;49.012;8.370;2023-07-31T02:28:51;18.70;71.40
20487;DHT22;10402;49.012;8.370;2023-07-31T02:31:16;18.70;71.70
20487;DHT22;10402;49.012;8.370;2023-07-31T02:33:42;18.70;71.80
20487;DHT22;10402;49.012;8.370;2023-07-31T02:36:07;18.70;71.80
20487;DHT22;10402;49.012;8.370;2023-07-31T02:38:33;18.70;71.90
20487;DHT22;10402;49.012;8.370;2023-07-31T02:40:59;18.70;71.80
20487;DHT22;10402;49.012;8.370;2023-07-31T02:43:24;18.70;71.90
20487;DHT22;10402;49.012;8.370;2023-07-31T02:45:53;18.70;71.90
20487;DHT22;10402;49.012;8.370;2023-07-31T02:48:19;18.70;71.80
20487;DHT22;10402;49.012;8.370;2023-07-31T02:50:45;18.70;71.70
20487;DHT22;10402;49.012;8.370;2023-07-31T02:53:11;18.60;71.60
20487;DHT22;10402;49.012;8.370;2023-07-31T02:55:36;18.70;71.90
20487;DHT22;10402;49.012;8.370;2023-07-31T02:58:02;18.70;72.00
20487;DHT22;10402;49.012;8.370;2023-07-31T03:00:28;18.60;71.90
20487;DHT22;10402;49.012;8.370;2023-07-31T03:02:53;18.60;72.00
20487;DHT22;10402;49.012;8.370;2023-07-31T03:05:19;18.60;72.00
20487;DHT22;10402;49.012;8.370;2023-07-31T03:07:44;18.60;71.90
20487;DHT22;10402;49.012;8.370;2023-07-31T03:10:10;18.60;71.90
20487;DHT22;10402;49.012;8.370;2023-07-31T03:12:35;18.60;71.90
20487;DHT22;10402;49.012;8.370;2023-07-31T03:15:01;18.60;71.90
20487;DHT22;10402;49.012;8.370;2023-07-31T03:17:27;18.50;71.90
20487;DHT22;10402;49.012;8.370;2023-07-31T03:19:52;18.60;71.90
20487;DHT22;10402;49.012;8.370;2023-07-31T03:22:18;18.60;72.10
20487;DHT22;10402;49.012;8.370;2023-07-31T03:24:43;18.50;72.00
20487;DHT22;10402;49.012;8.370;2023-07-31T03:27:09;18.50;72.00
20487;DHT22;10402;49.012;8.370;2023-07-31T03:29:34;18.50;72.10
20487;DHT22;10402;49.012;8.370;2023-07-31T03:32:00;18.50;72.10
20487;DHT22;10402;49.012;8.370;2023-07-31T03:34:26;18.50;72.10
20487;DHT22;10402;49.012;8.370;2023-07-31T03:36:51;18.50;72.10
20487;DHT22;10402;49.012;8.370;2023-07-31T03:39:17;18.50;72.10
20487;DHT22;10402;49.012;8.370;2023-07-31T03:41:43;18.50;72.00
20487;DHT22;10402;49.012;8.370;2023-07-31T03:44:08;18.50;72.00
20487;DHT22;10402;49.012;8.370;2023-07-31T03:46:34;18.40;72.00
20487;DHT22;10402;49.012;8.370;2023-07-31T03:49:00;18.40;72.10
20487;DHT22;10402;49.012;8.370;2023-07-31T03:51:25;18.40;72.10
20487;DHT22;10402;49.012;8.370;2023-07-31T03:53:51;18.40;72.20
20487;DHT22;10402;49.012;8.370;2023-07-31T03:56:16;18.40;72.10
20487;DHT22;10402;49.012;8.370;2023-07-31T03:58:42;18.50;72.10
20487;DHT22;10402;49.012;8.370;2023-07-31T04:01:07;18.40;71.80
20487;DHT22;10402;49.012;8.370;2023-07-31T04:03:33;18.50;72.00
20487;DHT22;10402;49.012;8.370;2023-07-31T04:05:58;18.50;71.80
20487;DHT22;10402;49.012;8.370;2023-07-31T04:08:24;18.50;71.50
20487;DHT22;10402;49.012;8.370;2023-07-31T04:10:50;18.50;71.30
20487;DHT22;10402;49.012;8.370;2023-07-31T04:13:15;18.60;71.10
20487;DHT22;10402;49.012;8.370;2023-07-31T04:15:41;18.60;71.10
20487;DHT22;10402;49.012;8.370;2023-07-31T04:18:07;18.70;71.20
20487;DHT22;10402;49.012;8.370;2023-07-31T04:20:32;18.70;71.20
20487;DHT22;10402;49.012;8.370;2023-07-31T04:22:58;18.60;70.90
20487;DHT22;10402;49.012;8.370;2023-07-31T04:25:23;18.60;70.90
20487;DHT22;10402;49.012;8.370;2023-07-31T04:27:49;18.70;71.00
20487;DHT22;10402;49.012;8.370;2023-07-31T04:30:14;18.70;70.90
20487;DHT22;10402;49.012;8.370;2023-07-31T04:32:40;18.70;71.00
20487;DHT22;10402;49.012;8.370;2023-07-31T04:35:06;18.70;70.90
20487;DHT22;10402;49.012;8.370;2023-07-31T04:37:31;18.60;70.90
20487;DHT22;10402;49.012;8.370;2023-07-31T04:39:57;18.70;71.00
20487;DHT22;10402;49.012;8.370;2023-07-31T04:42:23;18.60;70.90
20487;DHT22;10402;49.012;8.370;2023-07-31T04:44:48;18.70;71.10
20487;DHT22;10402;49.012;8.370;2023-07-31T04:47:14;18.70;71.70
20487;DHT22;10402;49.012;8.370;2023-07-31T04:49:39;18.70;70.70
20487;DHT22;10402;49.012;8.370;2023-07-31T04:52:05;18.80;70.60
20487;DHT22;10402;49.012;8.370;2023-07-31T04:54:31;18.70;70.60
20487;DHT22;10402;49.012;8.370;2023-07-31T04:56:56;18.70;70.80
20487;DHT22;10402;49.012;8.370;2023-07-31T04:59:22;18.70;70.70
20487;DHT22;10402;49.012;8.370;2023-07-31T05:01:47;18.70;70.60
20487;DHT22;10402;49.012;8.370;2023-07-31T05:04:13;18.70;70.80
20487;DHT22;10402;49.012;8.370;2023-07-31T05:06:40;18.70;70.80
20487;DHT22;10402;49.012;8.370;2023-07-31T05:09:05;18.70;70.90
20487;DHT22;10402;49.012;8.370;2023-07-31T05:11:31;18.70;70.70
20487;DHT22;10402;49.012;8.370;2023-07-31T05:13:56;18.80;70.90
20487;DHT22;10402;49.012;8.370;2023-07-31T05:16:22;18.80;70.70
20487;DHT22;10402;49.012;8.370;2023-07-31T05:18:47;18.80;70.70
20487;DHT22;10402;49.012;8.370;2023-07-31T05:21:13;18.80;70.80
20487;DHT22;10402;49.012;8.370;2023-07-31T05:23:38;18.80;70.60
20487;DHT22;10402;49.012;8.370;2023-07-31T05:26:05;18.90;70.50
20487;DHT22;10402;49.012;8.370;2023-07-31T05:28:31;18.90;70.60
20487;DHT22;10402;49.012;8.370;2023-07-31T05:31:03;18.90;70.40
20487;DHT22;10402;49.012;8.370;2023-07-31T05:33:29;18.90;70.30
20487;DHT22;10402;49.012;8.370;2023-07-31T05:35:54;18.90;70.20
20487;DHT22;10402;49.012;8.370;2023-07-31T05:38:20;19.00;70.20
20487;DHT22;10402;49.012;8.370;2023-07-31T05:40:47;19.00;70.20
20487;DHT22;10402;49.012;8.370;2023-07-31T05:43:12;19.00;70.10
20487;DHT22;10402;49.012;8.370;2023-07-31T05:45:38;19.10;70.20
20487;DHT22;10402;49.012;8.370;2023-07-31T05:48:05;19.00;70.10
20487;DHT22;10402;49.012;8.370;2023-07-31T05:50:31;19.00;70.10
20487;DHT22;10402;49.012;8.370;2023-07-31T05:52:57;19.10;70.10
20487;DHT22;10402;49.012;8.370;2023-07-31T05:55:22;19.00;70.10
20487;DHT22;10402;49.012;8.370;2023-07-31T05:57:48;19.10;70.20
20487;DHT22;10402;49.012;8.370;2023-07-31T06:00:14;19.10;70.10
20487;DHT22;10402;49.012;8.370;2023-07-31T06:02:40;19.10;70.10
20487;DHT22;10402;49.012;8.370;2023-07-31T06:05:05;19.20;70.10
20487;DHT22;10402;49.012;8.370;2023-07-31T06:07:32;19.20;70.00
20487;DHT22;10402;49.012;8.370;2023-07-31T06:09:57;19.20;70.00
20487;DHT22;10402;49.012;8.370;2023-07-31T06:12:28;19.30;70.10
20487;DHT22;10402;49.012;8.370;2023-07-31T06:14:54;19.30;69.90
20487;DHT22;10402;49.012;8.370;2023-07-31T06:17:19;19.40;69.90
20487;DHT22;10402;49.012;8.370;2023-07-31T06:19:45;19.40;69.70
20487;DHT22;10402;49.012;8.370;2023-07-31T06:22:10;19.40;69.50
20487;DHT22;10402;49.012;8.370;2023-07-31T06:24:36;19.40;69.40
20487;DHT22;10402;49.012;8.370;2023-07-31T06:27:01;19.50;69.50
20487;DHT22;10402;49.012;8.370;2023-07-31T06:29:29;19.50;69.40
20487;DHT22;10402;49.012;8.370;2023-07-31T06:31:55;19.60;69.30
20487;DHT22;10402;49.012;8.370;2023-07-31T06:34:20;19.60;69.10
20487;DHT22;10402;49.012;8.370;2023-07-31T06:36:46;19.70;69.10
20487;DHT22;10402;49.012;8.370;2023-07-31T06:39:11;19.70;69.00
20487;DHT22;10402;49.012;8.370;2023-07-31T06:41:38;19.70;68.70
20487;DHT22;10402;49.012;8.370;2023-07-31T06:44:04;19.70;69.60
20487;DHT22;10402;49.012;8.370;2023-07-31T06:46:29;19.80;68.90
20487;DHT22;10402;49.012;8.370;2023-07-31T06:48:55;19.80;68.80
20487;DHT22;10402;49.012;8.370;2023-07-31T06:51:20;19.80;68.80
20487;DHT22;10402;49.012;8.370;2023-07-31T06:53:46;19.80;68.80
20487;DHT22;10402;49.012;8.370;2023-07-31T06:56:12;19.90;68.80
20487;DHT22;10402;49.012;8.370;2023-07-31T06:58:37;19.90;68.90
20487;DHT22;10402;49.012;8.370;2023-07-31T07:01:03;19.90;69.60
20487;DHT22;10402;49.012;8.370;2023-07-31T07:03:29;19.90;68.80
20487;DHT22;10402;49.012;8.370;2023-07-31T07:05:54;19.90;68.80
20487;DHT22;10402;49.012;8.370;2023-07-31T07:08:20;19.90;68.70
20487;DHT22;10402;49.012;8.370;2023-07-31T07:10:46;19.90;68.90
20487;DHT22;10402;49.012;8.370;2023-07-31T07:13:11;19.90;68.60
20487;DHT22;10402;49.012;8.370;2023-07-31T07:15:38;19.90;68.50
20487;DHT22;10402;49.012;8.370;2023-07-31T07:18:03;19.90;68.60
20487;DHT22;10402;49.012;8.370;2023-07-31T07:20:29;19.90;68.70
20487;DHT22;10402;49.012;8.370;2023-07-31T07:22:54;20.00;68.50
20487;DHT22;10402;49.012;8.370;2023-07-31T07:25:20;20.00;68.50
20487;DHT22;10402;49.012;8.370;2023-07-31T07:27:46;20.00;68.30
20487;DHT22;10402;49.012;8.370;2023-07-31T07:30:11;20.10;68.20
20487;DHT22;10402;49.012;8.370;2023-07-31T07:32:37;20.00;68.10
20487;DHT22;10402;49.012;8.370;2023-07-31T07:35:03;20.00;68.10
20487;DHT22;10402;49.012;8.370;2023-07-31T07:37:28;20.10;68.10
20487;DHT22;10402;49.012;8.370;2023-07-31T07:39:54;20.20;68.00
20487;DHT22;10402;49.012;8.370;2023-07-31T07:42:19;20.20;67.70
20487;DHT22;10402;49.012;8.370;2023-07-31T07:44:45;20.20;67.60
20487;DHT22;10402;49.012;8.370;2023-07-31T07:47:12;20.20;67.50
20487;DHT22;10402;49.012;8.370;2023-07-31T07:49:38;20.20;67.40
20487;DHT22;10402;49.012;8.370;2023-07-31T07:52:04;20.30;67.50
20487;DHT22;10402;49.012;8.370;2023-07-31T07:54:30;20.30;67.40
20487;DHT22;10402;49.012;8.370;2023-07-31T07:56:56;20.40;67.10
20487;DHT22;10402;49.012;8.370;2023-07-31T07:59:21;20.40;67.00
20487;DHT22;10402;49.012;8.370;2023-07-31T08:01:47;20.40;67.00
20487;DHT22;10402;49.012;8.370;2023-07-31T08:04:12;20.40;67.00
20487;DHT22;10402;49.012;8.370;2023-07-31T08:06:38;20.50;66.80
20487;DHT22;10402;49.012;8.370;2023-07-31T08:09:03;20.50;66.70
20487;DHT22;10402;49.012;8.370;2023-07-31T08:11:32;20.50;66.70
20487;DHT22;10402;49.012;8.370;2023-07-31T08:13:57;20.50;66.70
20487;DHT22;10402;49.012;8.370;2023-07-31T08:16:23;20.50;66.40
20487;DHT22;10402;49.012;8.370;2023-07-31T08:18:48;20.60;66.50
20487;DHT22;10402;49.012;8.370;2023-07-31T08:21:14;20.60;66.50
20487;DHT22;10402;49.012;8.370;2023-07-31T08:23:40;20.60;66.30
20487;DHT22;10402;49.012;8.370;2023-07-31T08:26:06;20.60;66.20
20487;DHT22;10402;49.012;8.370;2023-07-31T08:28:31;20.70;66.30
20487;DHT22;10402;49.012;8.370;2023-07-31T08:30:57;20.70;66.10
20487;DHT22;10402;49.012;8.370;2023-07-31T08:33:22;20.70;65.90
20487;DHT22;10402;49.012;8.370;2023-07-31T08:35:48;20.80;65.90
20487;DHT22;10402;49.012;8.370;2023-07-31T08:38:14;20.80;65.90
20487;DHT22;10402;49.012;8.370;2023-07-31T08:40:39;20.80;65.80
20487;DHT22;10402;49.012;8.370;2023-07-31T08:43:05;20.90;66.00
20487;DHT22;10402;49.012;8.370;2023-07-31T08:45:32;20.90;65.80
20487;DHT22;10402;49.012;8.370;2023-07-31T08:47:58;20.90;65.80
20487;DHT22;10402;49.012;8.370;2023-07-31T08:50:24;21.00;65.70
20487;DHT22;10402;49.012;8.370;2023-07-31T08:52:51;21.00;65.70
20487;DHT22;10402;49.012;8.370;2023-07-31T08:55:17;21.10;65.70
20487;DHT22;10402;49.012;8.370;2023-07-31T08:57:49;21.20;65.50
20487;DHT22;10402;49.012;8.370;2023-07-31T09:00:15;21.20;65.00
20487;DHT22;10402;49.012;8.370;2023-07-31T09:02:55;21.20;65.00
20487;DHT22;10402;49.012;8.370;2023-07-31T09:05:22;21.30;65.00
20487;DHT22;10402;49.012;8.370;2023-07-31T09:07:50;21.40;64.70
20487;DHT22;10402;49.012;8.370;2023-07-31T09:10:16;21.40;64.20
20487;DHT22;10402;49.012;8.370;2023-07-31T09:12:42;21.50;64.30
20487;DHT22;10402;49.012;8.370;2023-07-31T09:15:09;21.50;64.00
20487;DHT22;10402;49.012;8.370;2023-07-31T09:17:36;21.60;64.80
20487;DHT22;10402;49.012;8.370;2023-07-31T09:20:14;21.70;63.90
20487;DHT22;10402;49.012;8.370;2023-07-31T09:22:40;21.80;64.00
20487;DHT22;10402;49.012;8.370;2023-07-31T09:25:26;21.80;63.80
20487;DHT22;10402;49.012;8.370;2023-07-31T09:27:58;21.80;63.80
20487;DHT22;10402;49.012;8.370;2023-07-31T09:30:24;21.90;63.60
20487;DHT22;10402;49.012;8.370;2023-07-31T09:32:52;22.00;63.20
20487;DHT22;10402;49.012;8.370;2023-07-31T09:35:29;22.10;63.00
20487;DHT22;10402;49.012;8.370;2023-07-31T09:38:00;22.10;62.70
20487;DHT22;10402;49.012;8.370;2023-07-31T09:40:26;22.20;62.50
20487;DHT22;10402;49.012;8.370;2023-07-31T09:42:54;22.10;62.20
20487;DHT22;10402;49.012;8.370;2023-07-31T09:45:21;22.10;61.90
20487;DHT22;10402;49.012;8.370;2023-07-31T09:47:47;22.10;61.90
20487;DHT22;10402;49.012;8.370;2023-07-31T09:50:14;22.20;62.80
20487;DHT22;10402;49.012;8.370;2023-07-31T09:52:40;22.20;62.00
20487;DHT22;10402;49.012;8.370;2023-07-31T09:55:06;22.20;62.00
20487;DHT22;10402;49.012;8.370;2023-07-31T09:57:32;22.30;62.10
20487;DHT22;10402;49.012;8.370;2023-07-31T09:59:58;22.30;61.90
20487;DHT22;10402;49.012;8.370;2023-07-31T10:02:24;22.30;61.60
20487;DHT22;10402;49.012;8.370;2023-07-31T10:04:52;22.30;61.20
20487;DHT22;10402;49.012;8.370;2023-07-31T10:07:18;22.30;60.90
20487;DHT22;10402;49.012;8.370;2023-07-31T10:09:46;22.30;60.90
20487;DHT22;10402;49.012;8.370;2023-07-31T10:12:12;22.30;60.90
20487;DHT22;10402;49.012;8.370;2023-07-31T10:14:40;22.30;60.80
20487;DHT22;10402;49.012;8.370;2023-07-31T10:17:06;22.40;60.80
20487;DHT22;10402;49.012;8.370;2023-07-31T10:19:34;22.50;60.80
20487;DHT22;10402;49.012;8.370;2023-07-31T10:22:00;22.60;60.60
20487;DHT22;10402;49.012;8.370;2023-07-31T10:24:28;22.60;60.20
20487;DHT22;10402;49.012;8.370;2023-07-31T10:26:57;22.60;60.20
20487;DHT22;10402;49.012;8.370;2023-07-31T10:29:25;22.70;60.20
20487;DHT22;10402;49.012;8.370;2023-07-31T10:31:52;22.70;60.30
20487;DHT22;10402;49.012;8.370;2023-07-31T10:34:19;22.60;60.20
20487;DHT22;10402;49.012;8.370;2023-07-31T10:36:44;22.60;60.30
20487;DHT22;10402;49.012;8.370;2023-07-31T10:39:35;22.60;60.20
20487;DHT22;10402;49.012;8.370;2023-07-31T10:42:14;22.60;60.20
20487;DHT22;10402;49.012;8.370;2023-07-31T10:44:44;22.60;60.00
20487;DHT22;10402;49.012;8.370;2023-07-31T10:47:13;22.60;60.20
20487;DHT22;10402;49.012;8.370;2023-07-31T10:49:39;22.60;60.40
20487;DHT22;10402;49.012;8.370;2023-07-31T10:52:05;22.60;60.20
20487;DHT22;10402;49.012;8.370;2023-07-31T10:54:35;22.60;60.20
20487;DHT22;10402;49.012;8.370;2023-07-31T10:57:01;22.60;60.30
20487;DHT22;10402;49.012;8.370;2023-07-31T10:59:27;22.70;60.80
20487;DHT22;10402;49.012;8.370;2023-07-31T11:01:55;22.70;60.80
20487;DHT22;10402;49.012;8.370;2023-07-31T11:04:27;22.70;60.70
20487;DHT22;10402;49.012;8.370;2023-07-31T11:07:00;22.80;60.90
20487;DHT22;10402;49.012;8.370;2023-07-31T11:09:30;22.80;60.60
20487;DHT22;10402;49.012;8.370;2023-07-31T11:11:57;22.90;60.50
20487;DHT22;10402;49.012;8.370;2023-07-31T11:14:23;22.90;60.60
20487;DHT22;10402;49.012;8.370;2023-07-31T11:16:52;22.90;60.60
20487;DHT22;10402;49.012;8.370;2023-07-31T11:19:24;23.00;60.80
20487;DHT22;10402;49.012;8.370;2023-07-31T11:21:52;23.00;60.70
20487;DHT22;10402;49.012;8.370;2023-07-31T11:24:18;23.00;60.60
20487;DHT22;10402;49.012;8.370;2023-07-31T11:26:51;23.00;60.50
20487;DHT22;10402;49.012;8.370;2023-07-31T11:29:17;23.00;60.20
20487;DHT22;10402;49.012;8.370;2023-07-31T11:31:44;23.10;60.60
20487;DHT22;10402;49.012;8.370;2023-07-31T11:34:10;23.10;60.50
20487;DHT22;10402;49.012;8.370;2023-07-31T11:36:35;23.10;60.50
20487;DHT22;10402;49.012;8.370;2023-07-31T11:39:05;23.10;60.40
20487;DHT22;10402;49.012;8.370;2023-07-31T11:41:31;23.10;60.30
20487;DHT22;10402;49.012;8.370;2023-07-31T11:43:59;23.10;60.40
20487;DHT22;10402;49.012;8.370;2023-07-31T11:46:25;23.20;60.70
20487;DHT22;10402;49.012;8.370;2023-07-31T11:48:51;23.20;60.40
20487;DHT22;10402;49.012;8.370;2023-07-31T11:51:17;23.20;60.30
20487;DHT22;10402;49.012;8.370;2023-07-31T11:53:58;23.20;60.00
20487;DHT22;10402;49.012;8.370;2023-07-31T11:56:25;23.20;60.30
20487;DHT22;10402;49.012;8.370;2023-07-31T11:58:55;23.20;60.20
20487;DHT22;10402;49.012;8.370;2023-07-31T12:01:22;23.20;60.00
20487;DHT22;10402;49.012;8.370;2023-07-31T12:03:49;23.20;60.10
20487;DHT22;10402;49.012;8.370;2023-07-31T12:06:15;23.20;60.20
20487;DHT22;10402;49.012;8.370;2023-07-31T12:08:41;23.30;60.30
20487;DHT22;10402;49.012;8.370;2023-07-31T12:11:08;23.30;60.00
20487;DHT22;10402;49.012;8.370;2023-07-31T12:13:35;23.30;60.10
20487;DHT22;10402;49.012;8.370;2023-07-31T12:16:02;23.30;60.00
20487;DHT22;10402;49.012;8.370;2023-07-31T12:18:33;23.40;60.00
20487;DHT22;10402;49.012;8.370;2023-07-31T12:21:00;23.40;59.90
20487;DHT22;10402;49.012;8.370;2023-07-31T12:26:14;23.40;60.00
20487;DHT22;10402;49.012;8.370;2023-07-31T12:28:41;23.40;60.00
20487;DHT22;10402;49.012;8.370;2023-07-31T12:31:10;23.40;59.70
20487;DHT22;10402;49.012;8.370;2023-07-31T12:33:37;23.50;59.70
20487;DHT22;10402;49.012;8.370;2023-07-31T12:36:15;23.50;59.80
20487;DHT22;10402;49.012;8.370;2023-07-31T12:38:41;23.50;59.50
20487;DHT22;10402;49.012;8.370;2023-07-31T12:41:08;23.50;59.50
20487;DHT22;10402;49.012;8.370;2023-07-31T12:43:34;23.40;60.10
20487;DHT22;10402;49.012;8.370;2023-07-31T12:46:00;23.40;59.50
20487;DHT22;10402;49.012;8.370;2023-07-31T12:48:26;23.40;59.40
20487;DHT22;10402;49.012;8.370;2023-07-31T12:50:51;23.40;59.60
20487;DHT22;10402;49.012;8.370;2023-07-31T12:53:17;23.50;59.70
20487;DHT22;10402;49.012;8.370;2023-07-31T12:55:42;23.40;59.50
20487;DHT22;10402;49.012;8.370;2023-07-31T12:58:08;23.50;59.70
20487;DHT22;10402;49.012;8.370;2023-07-31T13:00:34;23.50;59.70
20487;DHT22;10402;49.012;8.370;2023-07-31T13:03:00;23.50;59.60
20487;DHT22;10402;49.012;8.370;2023-07-31T13:05:29;23.60;59.60
20487;DHT22;10402;49.012;8.370;2023-07-31T13:07:55;23.60;59.60
20487;DHT22;10402;49.012;8.370;2023-07-31T13:10:24;23.70;59.70
20487;DHT22;10402;49.012;8.370;2023-07-31T13:12:52;23.70;59.70
20487;DHT22;10402;49.012;8.370;2023-07-31T13:15:17;23.70;59.50
20487;DHT22;10402;49.012;8.370;2023-07-31T13:17:43;23.70;59.70
20487;DHT22;10402;49.012;8.370;2023-07-31T13:20:09;23.70;59.50
20487;DHT22;10402;49.012;8.370;2023-07-31T13:22:34;23.70;59.60
20487;DHT22;10402;49.012;8.370;2023-07-31T13:25:00;23.70;59.60
20487;DHT22;10402;49.012;8.370;2023-07-31T13:27:25;23.70;59.50
20487;DHT22;10402;49.012;8.370;2023-07-31T13:29:51;23.70;59.50
20487;DHT22;10402;49.012;8.370;2023-07-31T13:32:18;23.70;59.40
20487;DHT22;10402;49.012;8.370;2023-07-31T13:34:44;23.70;59.40
20487;DHT22;10402;49.012;8.370;2023-07-31T13:37:10;23.70;59.40
20487;DHT22;10402;49.012;8.370;2023-07-31T13:39:36;23.70;59.40
20487;DHT22;10402;49.012;8.370;2023-07-31T13:42:03;23.60;59.30
20487;DHT22;10402;49.012;8.370;2023-07-31T13:44:32;23.70;59.60
20487;DHT22;10402;49.012;8.370;2023-07-31T13:46:59;23.70;59.60
20487;DHT22;10402;49.012;8.370;2023-07-31T13:49:25;23.70;59.50
20487;DHT22;10402;49.012;8.370;2023-07-31T13:51:50;23.70;59.50
20487;DHT22;10402;49.012;8.370;2023-07-31T13:54:16;23.70;59.50
20487;DHT22;10402;49.012;8.370;2023-07-31T13:56:43;23.70;59.50
20487;DHT22;10402;49.012;8.370;2023-07-31T13:59:09;23.70;59.60
20487;DHT22;10402;49.012;8.370;2023-07-31T14:01:35;23.80;59.70
20487;DHT22;10402;49.012;8.370;2023-07-31T14:04:00;23.80;59.80
20487;DHT22;10402;49.012;8.370;2023-07-31T14:06:26;23.90;59.80
20487;DHT22;10402;49.012;8.370;2023-07-31T14:08:52;23.90;59.80
20487;DHT22;10402;49.012;8.370;2023-07-31T14:11:17;23.90;59.70
20487;DHT22;10402;49.012;8.370;2023-07-31T14:13:43;23.90;59.70
20487;DHT22;10402;49.012;8.370;2023-07-31T14:16:08;23.90;59.70
20487;DHT22;10402;49.012;8.370;2023-07-31T14:18:34;23.90;59.60
20487;DHT22;10402;49.012;8.370;2023-07-31T14:20:59;23.80;59.70
20487;DHT22;10402;49.012;8.370;2023-07-31T14:23:25;23.80;59.70
20487;DHT22;10402;49.012;8.370;2023-07-31T14:25:50;23.80;59.70
20487;DHT22;10402;49.012;8.370;2023-07-31T14:28:16;23.70;59.70
20487;DHT22;10402;49.012;8.370;2023-07-31T14:30:41;23.70;59.80
20487;DHT22;10402;49.012;8.370;2023-07-31T14:33:07;23.60;59.90
20487;DHT22;10402;49.012;8.370;2023-07-31T14:35:34;23.60;59.80
20487;DHT22;10402;49.012;8.370;2023-07-31T14:37:59;23.60;59.90
20487;DHT22;10402;49.012;8.370;2023-07-31T14:40:25;23.60;59.90
20487;DHT22;10402;49.012;8.370;2023-07-31T14:42:51;23.60;60.00
20487;DHT22;10402;49.012;8.370;2023-07-31T14:45:16;23.60;60.10
20487;DHT22;10402;49.012;8.370;2023-07-31T14:47:42;23.70;60.10
20487;DHT22;10402;49.012;8.370;2023-07-31T14:50:07;23.70;60.00
20487;DHT22;10402;49.012;8.370;2023-07-31T14:52:33;23.80;60.00
20487;DHT22;10402;49.012;8.370;2023-07-31T14:54:59;23.80;60.00
20487;DHT22;10402;49.012;8.370;2023-07-31T14:57:24;23.80;60.00
20487;DHT22;10402;49.012;8.370;2023-07-31T14:59:50;23.80;60.10
20487;DHT22;10402;49.012;8.370;2023-07-31T15:02:15;23.80;60.30
20487;DHT22;10402;49.012;8.370;2023-07-31T15:04:41;23.80;60.30
20487;DHT22;10402;49.012;8.370;2023-07-31T15:07:07;23.90;60.50
20487;DHT22;10402;49.012;8.370;2023-07-31T15:09:32;23.90;60.20
20487;DHT22;10402;49.012;8.370;2023-07-31T15:11:58;23.90;60.30
20487;DHT22;10402;49.012;8.370;2023-07-31T15:14:24;23.90;60.20
20487;DHT22;10402;49.012;8.370;2023-07-31T15:16:50;24.00;60.40
20487;DHT22;10402;49.012;8.370;2023-07-31T15:19:16;24.00;60.30
20487;DHT22;10402;49.012;8.370;2023-07-31T15:21:42;24.10;60.30
20487;DHT22;10402;49.012;8.370;2023-07-31T15:24:07;24.10;60.20
20487;DHT22;10402;49.012;8.370;2023-07-31T15:26:33;24.10;60.20
20487;DHT22;10402;49.012;8.370;2023-07-31T15:29:04;24.20;60.30
20487;DHT22;10402;49.012;8.370;2023-07-31T15:31:34;24.20;60.30
20487;DHT22;10402;49.012;8.370;2023-07-31T15:33:59;24.20;60.30